createdAt,value
2023-04-22T00:01:05.734Z,23.67
2023-04-22T00:03:32.328Z,28.00
2023-04-22T00:05:59.022Z,24.00
2023-04-22T00:08:26.510Z,24.67
2023-04-22T00:10:52.981Z,19.50
2023-04-22T00:13:19.428Z,21.00
2023-04-22T00:15:46.848Z,25.33
2023-04-22T00:18:14.356Z,21.00
2023-04-22T00:20:40.885Z,25.50
2023-04-22T00:23:07.350Z,23.50
2023-04-22T00:25:34.739Z,24.00
2023-04-22T00:28:02.125Z,23.00
2023-04-22T00:30:29.496Z,24.33
2023-04-22T00:32:56.917Z,23.00
2023-04-22T00:35:24.343Z,18.33
2023-04-22T00:37:51.742Z,21.33
2023-04-22T00:40:18.259Z,17.50
2023-04-22T00:42:44.762Z,21.00
2023-04-22T00:45:11.253Z,28.00
2023-04-22T00:47:37.721Z,19.50
2023-04-22T00:50:04.193Z,19.00
2023-04-22T00:52:31.559Z,20.67
2023-04-22T00:54:58.931Z,21.00
2023-04-22T00:57:26.340Z,24.00
2023-04-22T00:59:53.727Z,18.67
2023-04-22T01:02:20.250Z,23.00
2023-04-22T01:04:47.658Z,22.67
2023-04-22T01:07:14.107Z,22.00
2023-04-22T01:09:41.899Z,18.00
2023-04-22T01:12:09.326Z,17.00
2023-04-22T01:14:36.701Z,20.00
2023-04-22T01:17:03.214Z,21.00
2023-04-22T01:19:29.837Z,21.00
2023-04-22T01:21:56.257Z,17.50
2023-04-22T01:24:22.697Z,17.00
2023-04-22T01:26:50.092Z,22.00
2023-04-22T01:29:17.483Z,21.33
2023-04-22T01:31:44.843Z,18.33
2023-04-22T01:34:11.384Z,18.50
2023-04-22T01:36:37.852Z,19.00
2023-04-22T01:39:04.322Z,20.00
2023-04-22T01:41:31.688Z,18.00
2023-04-22T01:43:58.126Z,19.00
2023-04-22T01:46:25.509Z,18.00
2023-04-22T01:48:52.926Z,20.00
2023-04-22T01:51:19.366Z,17.00
2023-04-22T01:53:45.814Z,18.00
2023-04-22T01:56:13.171Z,18.00
2023-04-22T01:58:40.512Z,17.67
2023-04-22T02:01:06.978Z,19.50
2023-04-22T02:03:33.621Z,18.50
2023-04-22T02:06:00.251Z,19.00
2023-04-22T02:08:26.703Z,17.50
2023-04-22T02:10:53.159Z,19.00
2023-04-22T02:13:19.584Z,19.50
2023-04-22T02:15:46.114Z,18.00
2023-04-22T02:18:13.541Z,20.67
2023-04-22T02:20:39.982Z,18.00
2023-04-22T02:23:07.433Z,17.67
2023-04-22T02:25:33.907Z,20.50
2023-04-22T02:28:01.309Z,17.67
2023-04-22T02:30:28.635Z,18.33
2023-04-22T02:32:55.099Z,18.00
2023-04-22T02:35:22.433Z,18.33
2023-04-22T02:37:48.845Z,18.00
2023-04-22T02:40:15.284Z,16.50
2023-04-22T02:42:42.590Z,19.33
2023-04-22T02:45:09.045Z,17.50
2023-04-22T02:47:36.470Z,18.00
2023-04-22T02:50:04.827Z,15.60
2023-04-22T02:52:31.258Z,14.00
2023-04-22T02:54:58.543Z,17.00
2023-04-22T02:57:24.994Z,15.00
2023-04-22T02:59:51.399Z,13.50
2023-04-22T03:02:18.814Z,16.67
2023-04-22T03:04:45.388Z,17.00
2023-04-22T03:07:12.760Z,17.67
2023-04-22T03:09:40.455Z,18.33
2023-04-22T03:12:07.883Z,14.67
2023-04-22T03:14:35.203Z,17.67
2023-04-22T03:17:01.728Z,17.50
2023-04-22T03:19:28.287Z,18.50
2023-04-22T03:21:55.659Z,19.00
2023-04-22T03:24:22.125Z,16.50
2023-04-22T03:26:48.539Z,17.00
2023-04-22T03:29:15.918Z,16.67
2023-04-22T03:31:43.309Z,18.00
2023-04-22T03:34:10.658Z,17.00
2023-04-22T03:36:37.124Z,17.00
2023-04-22T03:39:03.598Z,16.00
2023-04-22T03:41:30.031Z,16.00
2023-04-22T03:43:56.456Z,17.50
2023-04-22T03:46:24.103Z,17.33
2023-04-22T03:48:50.671Z,17.00
2023-04-22T03:51:17.123Z,15.00
2023-04-22T03:53:43.566Z,16.50
2023-04-22T03:56:10.883Z,17.67
2023-04-22T03:58:37.330Z,18.50
2023-04-22T04:01:03.794Z,15.00
2023-04-22T04:03:31.183Z,15.50
2023-04-22T04:05:57.871Z,18.50
2023-04-22T04:08:24.332Z,17.00
2023-04-22T04:10:50.758Z,16.00
2023-04-22T04:13:17.219Z,16.50
2023-04-22T04:15:44.487Z,14.00
2023-04-22T04:18:10.923Z,14.50
2023-04-22T04:20:37.344Z,19.00
2023-04-22T04:23:03.766Z,18.00
2023-04-22T04:25:31.024Z,13.33
2023-04-22T04:27:58.438Z,19.33
2023-04-22T04:30:24.857Z,14.00
2023-04-22T04:32:51.356Z,16.00
2023-04-22T04:35:17.782Z,18.00
2023-04-22T04:37:45.029Z,14.67
2023-04-22T04:40:12.372Z,16.67
2023-04-22T04:42:38.854Z,16.50
2023-04-22T04:45:05.357Z,11.50
2023-04-22T04:47:33.658Z,12.80
2023-04-22T04:50:00.915Z,14.33
2023-04-22T04:52:27.333Z,14.50
2023-04-22T04:54:54.620Z,18.00
2023-04-22T04:57:21.037Z,15.50
2023-04-22T04:59:47.460Z,13.00
2023-04-22T05:02:15.949Z,16.80
2023-04-22T05:04:42.615Z,17.00
2023-04-22T05:07:09.128Z,16.00
2023-04-22T05:09:36.447Z,17.67
2023-04-22T05:12:02.890Z,19.00
2023-04-22T05:14:29.322Z,13.00
2023-04-22T05:16:55.818Z,17.00
2023-04-22T05:19:23.205Z,17.00
2023-04-22T05:21:49.632Z,18.00
2023-04-22T05:24:16.064Z,15.00
2023-04-22T05:26:43.412Z,18.33
2023-04-22T05:29:09.845Z,16.00
2023-04-22T05:31:36.344Z,14.50
2023-04-22T05:34:02.794Z,16.50
2023-04-22T05:36:31.546Z,17.00
2023-04-22T05:38:59.104Z,18.67
2023-04-22T05:41:26.400Z,17.00
2023-04-22T05:43:52.836Z,17.00
2023-04-22T05:46:20.170Z,15.33
2023-04-22T05:48:46.574Z,14.00
2023-04-22T05:51:14.903Z,16.20
2023-04-22T05:53:41.373Z,12.50
2023-04-22T05:56:08.638Z,13.33
2023-04-22T05:58:35.856Z,13.33
2023-04-22T06:01:03.093Z,16.00
2023-04-22T06:03:29.685Z,8.33
2023-04-22T06:05:56.681Z,14.00
2023-04-22T06:08:23.188Z,12.00
2023-04-22T06:10:50.432Z,15.33
2023-04-22T06:13:16.896Z,12.00
2023-04-22T06:15:43.318Z,12.50
2023-04-22T06:18:13.296Z,14.29
2023-04-22T06:20:43.241Z,15.00
2023-04-22T06:23:09.676Z,12.00
2023-04-22T06:25:38.849Z,10.83
2023-04-22T06:28:06.107Z,12.33
2023-04-22T06:30:34.402Z,13.80
2023-04-22T06:33:00.885Z,12.50
2023-04-22T06:35:29.269Z,12.80
2023-04-22T06:37:55.688Z,11.00
2023-04-22T06:40:22.100Z,11.00
2023-04-22T06:42:48.720Z,11.00
2023-04-22T06:45:15.984Z,14.33
2023-04-22T06:47:42.475Z,14.00
2023-04-22T06:50:09.000Z,12.00
2023-04-22T06:52:36.284Z,14.00
2023-04-22T06:55:02.864Z,14.00
2023-04-22T06:57:29.332Z,17.00
2023-04-22T06:59:56.564Z,13.67
2023-04-22T07:02:23.079Z,14.00
2023-04-22T07:04:49.643Z,16.00
2023-04-22T07:07:16.116Z,13.00
2023-04-22T07:09:42.695Z,14.50
2023-04-22T07:12:09.249Z,13.50
2023-04-22T07:14:35.695Z,11.50
2023-04-22T07:17:02.174Z,12.50
2023-04-22T07:19:31.184Z,12.00
2023-04-22T07:21:58.947Z,10.00
2023-04-22T07:24:26.172Z,13.67
2023-04-22T07:26:53.398Z,13.67
2023-04-22T07:29:21.640Z,10.00
2023-04-22T07:31:48.940Z,12.67
2023-04-22T07:34:16.194Z,11.33
2023-04-22T07:36:42.620Z,10.00
2023-04-22T07:39:09.041Z,10.00
2023-04-22T07:41:36.312Z,11.75
2023-04-22T07:44:02.733Z,12.50
2023-04-22T07:46:31.892Z,9.67
2023-04-22T07:49:00.181Z,11.00
2023-04-22T07:51:26.608Z,10.00
2023-04-22T07:53:53.082Z,11.50
2023-04-22T07:56:19.507Z,10.00
2023-04-22T07:58:46.720Z,7.75
2023-04-22T08:01:13.128Z,8.50
2023-04-22T08:03:39.666Z,7.00
2023-04-22T08:06:07.091Z,8.00
2023-04-22T08:08:33.445Z,8.00
2023-04-22T08:10:59.788Z,6.00
2023-04-22T08:13:26.143Z,6.67
2023-04-22T08:15:54.458Z,10.80
2023-04-22T08:18:23.655Z,10.67
2023-04-22T08:20:49.995Z,7.00
2023-04-22T08:23:16.368Z,5.33
2023-04-22T08:25:42.690Z,7.67
2023-04-22T08:28:09.032Z,8.00
2023-04-22T08:30:35.421Z,8.67
2023-04-22T08:33:01.840Z,7.33
2023-04-22T08:35:28.253Z,8.00
2023-04-22T08:37:54.616Z,6.67
2023-04-22T08:40:21.001Z,8.00
2023-04-22T08:42:47.328Z,7.00
2023-04-22T08:45:13.652Z,6.00
2023-04-22T08:47:40.899Z,7.50
2023-04-22T08:50:07.230Z,6.00
2023-04-22T08:52:33.556Z,5.67
2023-04-22T08:54:59.934Z,6.00
2023-04-22T08:57:26.278Z,4.00
2023-04-22T08:59:52.615Z,6.33
2023-04-22T09:02:18.960Z,8.00
2023-04-22T09:04:45.306Z,5.33
2023-04-22T09:07:11.678Z,5.00
2023-04-22T09:09:38.177Z,5.33
2023-04-22T09:12:04.645Z,5.00
2023-04-22T09:14:30.921Z,5.00
2023-04-22T09:16:57.307Z,4.00
2023-04-22T09:19:23.645Z,4.00
2023-04-22T09:21:52.065Z,3.33
2023-04-22T09:24:20.956Z,4.00
2023-04-22T09:26:47.281Z,3.00
2023-04-22T09:29:13.649Z,4.00
2023-04-22T09:31:40.080Z,4.00
2023-04-22T09:34:06.485Z,5.67
2023-04-22T09:36:32.822Z,6.00
2023-04-22T09:38:59.187Z,5.00
2023-04-22T09:41:25.520Z,5.33
2023-04-22T09:43:51.858Z,4.67
2023-04-22T09:46:18.292Z,5.00
2023-04-22T09:48:44.675Z,4.00
2023-04-22T09:51:11.902Z,5.50
2023-04-22T09:53:38.262Z,6.00
2023-04-22T09:56:04.621Z,5.00
2023-04-22T09:58:30.955Z,5.33
2023-04-22T10:00:57.350Z,4.00
2023-04-22T10:03:23.699Z,5.00
2023-04-22T10:05:50.067Z,5.00
2023-04-22T10:08:16.475Z,4.00
2023-04-22T10:10:42.865Z,5.33
2023-04-22T10:13:10.051Z,5.00
2023-04-22T10:15:36.433Z,4.00
2023-04-22T10:18:02.821Z,4.00
2023-04-22T10:20:29.212Z,4.67
2023-04-22T10:22:55.540Z,4.33
2023-04-22T10:25:21.871Z,4.33
2023-04-22T10:27:48.204Z,4.00
2023-04-22T10:30:15.407Z,3.00
2023-04-22T10:32:41.797Z,4.33
2023-04-22T10:35:08.201Z,4.00
2023-04-22T10:37:34.561Z,6.00
2023-04-22T10:40:00.903Z,5.00
2023-04-22T10:42:27.269Z,4.67
2023-04-22T10:44:53.633Z,5.00
2023-04-22T10:47:19.993Z,4.00
2023-04-22T10:49:46.347Z,5.00
2023-04-22T10:52:13.560Z,5.25
2023-04-22T10:54:39.936Z,4.00
2023-04-22T10:57:06.282Z,4.00
2023-04-22T10:59:32.644Z,4.00
2023-04-22T11:01:59.071Z,5.67
2023-04-22T11:04:25.572Z,5.67
2023-04-22T11:06:51.982Z,3.00
2023-04-22T11:09:18.323Z,5.00
2023-04-22T11:11:44.663Z,5.00
2023-04-22T11:14:11.025Z,4.67
2023-04-22T11:16:37.398Z,5.00
2023-04-22T11:19:03.753Z,5.00
2023-04-22T11:21:30.078Z,4.33
2023-04-22T11:23:56.398Z,5.00
2023-04-22T11:26:22.720Z,4.33
2023-04-22T11:28:49.071Z,3.67
2023-04-22T11:31:15.454Z,4.00
2023-04-22T11:33:41.783Z,4.00
2023-04-22T11:36:08.486Z,4.00
2023-04-22T11:38:35.178Z,4.67
2023-04-22T11:41:01.787Z,6.00
2023-04-22T11:43:28.164Z,4.33
2023-04-22T11:45:54.564Z,5.00
2023-04-22T11:48:21.785Z,4.75
2023-04-22T11:50:48.111Z,5.00
2023-04-22T11:53:14.438Z,4.00
2023-04-22T11:55:40.806Z,4.00
2023-04-22T11:58:07.169Z,4.00
2023-04-22T12:00:33.497Z,4.00
2023-04-22T12:03:00.037Z,4.00
2023-04-22T12:05:26.618Z,4.00
2023-04-22T12:07:52.949Z,5.00
2023-04-22T12:10:19.258Z,5.00
2023-04-22T12:12:45.587Z,4.00
2023-04-22T12:15:13.748Z,5.00
2023-04-22T12:17:40.325Z,4.67
2023-04-22T12:20:06.738Z,4.33
2023-04-22T12:22:33.109Z,5.00
2023-04-22T12:24:59.426Z,5.00
2023-04-22T12:27:25.764Z,5.00
2023-04-22T12:29:52.108Z,5.00
2023-04-22T12:32:19.309Z,5.00
2023-04-22T12:34:45.638Z,6.67
2023-04-22T12:37:12.047Z,5.00
2023-04-22T12:39:38.484Z,5.67
2023-04-22T12:42:05.016Z,5.00
2023-04-22T12:44:31.371Z,4.00
2023-04-22T12:46:57.692Z,5.00
2023-04-22T12:49:24.064Z,6.00
2023-04-22T12:51:50.403Z,4.00
2023-04-22T12:54:16.754Z,6.00
2023-04-22T12:56:43.111Z,6.00
2023-04-22T12:59:09.464Z,5.67
2023-04-22T13:01:35.976Z,5.67
2023-04-22T13:04:02.871Z,5.67
2023-04-22T13:06:29.388Z,5.00
2023-04-22T13:08:55.769Z,5.00
2023-04-22T13:11:22.119Z,5.00
2023-04-22T13:13:48.479Z,4.33
2023-04-22T13:16:14.876Z,6.67
2023-04-22T13:18:41.227Z,7.00
2023-04-22T13:21:07.561Z,5.00
2023-04-22T13:23:33.909Z,5.67
2023-04-22T13:26:00.243Z,7.00
2023-04-22T13:28:26.572Z,5.67
2023-04-22T13:30:52.907Z,7.00
2023-04-22T13:33:19.273Z,5.00
2023-04-22T13:35:45.630Z,7.00
2023-04-22T13:38:11.994Z,6.00
2023-04-22T13:40:38.357Z,6.00
2023-04-22T13:43:04.717Z,5.00
2023-04-22T13:45:31.110Z,6.33
2023-04-22T13:47:57.613Z,7.33
2023-04-22T13:50:24.006Z,7.33
2023-04-22T13:52:50.290Z,7.00
2023-04-22T13:55:16.648Z,7.00
2023-04-22T13:57:42.996Z,5.33
2023-04-22T14:00:09.381Z,7.00
2023-04-22T14:02:35.797Z,6.00
2023-04-22T14:05:02.197Z,6.00
2023-04-22T14:07:28.598Z,7.33
2023-04-22T14:09:55.796Z,6.75
2023-04-22T14:12:23.008Z,6.50
2023-04-22T14:14:49.362Z,7.00
2023-04-22T14:17:15.700Z,7.67
2023-04-22T14:19:42.313Z,7.33
2023-04-22T14:22:08.873Z,6.67
2023-04-22T14:24:35.268Z,7.00
2023-04-22T14:27:01.635Z,6.00
2023-04-22T14:29:27.983Z,5.33
2023-04-22T14:31:54.325Z,7.00
2023-04-22T14:34:20.672Z,7.00
2023-04-22T14:36:47.008Z,7.00
2023-04-22T14:39:13.616Z,7.67
2023-04-22T14:41:39.978Z,8.00
2023-04-22T14:44:06.584Z,5.00
2023-04-22T14:46:33.009Z,7.00
2023-04-22T14:48:59.673Z,7.33
2023-04-22T14:51:26.045Z,9.67
2023-04-22T14:53:52.462Z,10.00
2023-04-22T14:56:18.886Z,9.00
2023-04-22T14:58:45.429Z,8.50
2023-04-22T15:01:14.614Z,8.17
2023-04-22T15:03:41.272Z,11.00
2023-04-22T15:06:07.903Z,10.00
2023-04-22T15:08:34.280Z,8.33
2023-04-22T15:11:00.644Z,6.00
2023-04-22T15:13:26.970Z,7.00
2023-04-22T15:15:53.403Z,7.67
2023-04-22T15:18:19.843Z,3.67
2023-04-22T15:20:46.192Z,7.00
2023-04-22T15:23:13.394Z,7.75
2023-04-22T15:25:40.572Z,6.00
2023-04-22T15:28:06.929Z,6.00
2023-04-22T15:30:33.252Z,8.00
2023-04-22T15:32:59.649Z,8.00
2023-04-22T15:35:26.035Z,6.00
2023-04-22T15:37:52.376Z,7.67
2023-04-22T15:40:19.601Z,5.00
2023-04-22T15:42:45.960Z,7.00
2023-04-22T15:45:12.300Z,7.00
2023-04-22T15:47:38.738Z,5.33
2023-04-22T15:50:05.975Z,7.00
2023-04-22T15:52:32.317Z,7.00
2023-04-22T15:54:58.668Z,7.00
2023-04-22T15:57:24.983Z,6.00
2023-04-22T15:59:59.327Z,6.67
2023-04-22T16:02:33.866Z,6.00
2023-04-22T16:05:00.402Z,6.00
2023-04-22T16:07:26.748Z,3.00
2023-04-22T16:09:53.074Z,6.00
2023-04-22T16:12:19.409Z,6.00
2023-04-22T16:14:45.729Z,6.00
2023-04-22T16:17:12.931Z,6.75
2023-04-22T16:19:39.471Z,7.00
2023-04-22T16:22:05.981Z,5.67
2023-04-22T16:24:32.300Z,6.00
2023-04-22T16:26:58.631Z,5.00
2023-04-22T16:29:24.965Z,6.00
2023-04-22T16:31:51.337Z,6.33
2023-04-22T16:34:18.544Z,6.75
2023-04-22T16:36:44.881Z,6.00
2023-04-22T16:39:11.235Z,7.00
2023-04-22T16:41:37.592Z,6.00
2023-04-22T16:44:03.944Z,6.00
2023-04-22T16:46:30.331Z,8.00
2023-04-22T16:48:56.850Z,6.00
2023-04-22T16:51:24.060Z,7.00
2023-04-22T16:53:50.415Z,6.33
2023-04-22T16:56:16.754Z,6.33
2023-04-22T16:58:43.120Z,7.33
2023-04-22T17:01:10.369Z,6.50
2023-04-22T17:03:36.982Z,7.00
2023-04-22T17:06:03.425Z,8.00
2023-04-22T17:08:29.759Z,7.00
2023-04-22T17:10:56.100Z,7.67
2023-04-22T17:13:22.444Z,6.00
2023-04-22T17:15:48.852Z,7.00
2023-04-22T17:18:16.493Z,6.00
2023-04-22T17:20:42.898Z,7.00
2023-04-22T17:23:09.253Z,7.33
2023-04-22T17:25:35.596Z,6.00
2023-04-22T17:28:01.942Z,8.00
2023-04-22T17:30:28.286Z,6.67
2023-04-22T17:32:54.665Z,7.67
2023-04-22T17:35:21.023Z,5.67
2023-04-22T17:37:47.353Z,6.67
2023-04-22T17:40:13.729Z,7.00
2023-04-22T17:42:46.029Z,7.00
2023-04-22T17:45:13.606Z,5.50
2023-04-22T17:47:39.967Z,6.00
2023-04-22T17:50:06.492Z,7.00
2023-04-22T17:52:32.825Z,8.00
2023-04-22T17:55:00.104Z,8.00
2023-04-22T17:57:26.514Z,7.00
2023-04-22T17:59:52.852Z,8.00
2023-04-22T18:02:19.282Z,8.00
2023-04-22T18:04:45.675Z,8.00
2023-04-22T18:07:12.027Z,6.67
2023-04-22T18:09:39.530Z,9.25
2023-04-22T18:12:06.059Z,8.00
2023-04-22T18:14:33.262Z,8.25
2023-04-22T18:16:59.712Z,8.67
2023-04-22T18:19:26.065Z,7.00
2023-04-22T18:21:59.472Z,10.00
2023-04-22T18:24:26.572Z,9.00
2023-04-22T18:26:52.983Z,8.00
2023-04-22T18:29:20.275Z,10.00
2023-04-22T18:31:48.583Z,10.00
2023-04-22T18:34:15.086Z,10.00
2023-04-22T18:36:43.362Z,11.80
2023-04-22T18:39:12.528Z,10.00
2023-04-22T18:41:38.937Z,8.50
2023-04-22T18:44:05.381Z,10.00
2023-04-22T18:46:31.820Z,12.00
2023-04-22T18:48:58.205Z,10.00
2023-04-22T18:51:24.681Z,10.00
2023-04-22T18:53:51.176Z,12.00
2023-04-22T18:56:17.604Z,10.00
2023-04-22T18:58:45.074Z,11.50
2023-04-22T19:01:11.675Z,12.50
2023-04-22T19:03:38.278Z,11.50
2023-04-22T19:06:04.854Z,12.00
2023-04-22T19:08:33.136Z,12.40
2023-04-22T19:10:59.765Z,11.00
2023-04-22T19:13:29.631Z,12.00
2023-04-22T19:15:58.307Z,14.20
2023-04-22T19:18:24.810Z,13.50
2023-04-22T19:20:51.219Z,10.50
2023-04-22T19:23:17.687Z,11.50
2023-04-22T19:25:44.161Z,13.00
2023-04-22T19:28:10.566Z,11.50
2023-04-22T19:30:38.850Z,11.20
2023-04-22T19:33:07.205Z,12.67
2023-04-22T19:35:34.412Z,13.33
2023-04-22T19:38:00.824Z,12.50
2023-04-22T19:40:27.248Z,13.00
2023-04-22T19:42:54.495Z,12.67
2023-04-22T19:45:20.893Z,14.00
2023-04-22T19:47:47.398Z,13.00
2023-04-22T19:50:13.823Z,14.00
2023-04-22T19:52:40.248Z,16.50
2023-04-22T19:55:07.620Z,15.00
2023-04-22T19:57:35.025Z,21.00
2023-04-22T20:00:02.444Z,20.00
2023-04-22T20:02:29.963Z,18.00
2023-04-22T20:04:57.384Z,19.00
2023-04-22T20:07:24.747Z,19.67
2023-04-22T20:09:52.120Z,18.00
2023-04-22T20:12:19.466Z,18.00
2023-04-22T20:14:46.862Z,16.67
2023-04-22T20:17:13.323Z,19.00
2023-04-22T20:19:40.846Z,18.67
2023-04-22T20:22:08.498Z,17.67
2023-04-22T20:24:34.970Z,19.00
2023-04-22T20:27:02.372Z,18.00
2023-04-22T20:29:29.744Z,20.33
2023-04-22T20:31:56.224Z,21.00
2023-04-22T20:34:22.702Z,18.50
2023-04-22T20:36:50.086Z,19.33
2023-04-22T20:39:16.541Z,18.00
2023-04-22T20:41:42.999Z,19.00
2023-04-22T20:44:10.392Z,19.00
2023-04-22T20:46:36.844Z,19.00
2023-04-22T20:49:03.354Z,24.00
2023-04-22T20:51:29.805Z,19.00
2023-04-22T20:53:56.258Z,22.00
2023-04-22T20:56:22.762Z,21.00
2023-04-22T20:58:50.154Z,23.67
2023-04-22T21:01:16.637Z,22.50
2023-04-22T21:03:43.295Z,24.00
2023-04-22T21:06:09.945Z,26.00
2023-04-22T21:08:36.406Z,24.00
2023-04-22T21:11:02.862Z,22.00
2023-04-22T21:13:29.309Z,26.00
2023-04-22T21:15:55.793Z,24.00
2023-04-22T21:18:23.206Z,24.00
2023-04-22T21:20:49.709Z,24.00
2023-04-22T21:23:16.200Z,28.00
2023-04-22T21:25:43.576Z,22.67
2023-04-22T21:28:10.989Z,23.67
2023-04-22T21:30:37.455Z,24.50
2023-04-22T21:33:03.983Z,21.50
2023-04-22T21:35:30.503Z,25.00
2023-04-22T21:37:57.890Z,27.00
2023-04-22T21:40:24.349Z,25.50
2023-04-22T21:42:51.732Z,20.00
2023-04-22T21:45:19.092Z,22.50
2023-04-22T21:47:45.567Z,21.50
2023-04-22T21:50:12.035Z,21.00
2023-04-22T21:52:39.424Z,22.00
2023-04-22T21:55:06.832Z,21.00
2023-04-22T21:57:33.271Z,24.00
2023-04-22T22:00:00.623Z,21.33
2023-04-22T22:02:27.201Z,25.50
2023-04-22T22:04:54.698Z,23.33
2023-04-22T22:07:21.185Z,22.50
2023-04-22T22:09:47.636Z,22.00
2023-04-22T22:12:14.999Z,23.50
2023-04-22T22:14:41.890Z,24.00
2023-04-22T22:17:09.599Z,25.00
2023-04-22T22:19:36.065Z,23.00
2023-04-22T22:22:02.544Z,25.50
2023-04-22T22:24:29.049Z,27.00
2023-04-22T22:26:55.549Z,23.00
2023-04-22T22:29:22.014Z,23.00
2023-04-22T22:31:49.430Z,22.67
2023-04-22T22:34:15.953Z,27.00
2023-04-22T22:36:42.412Z,26.00
2023-04-22T22:39:08.891Z,24.00
2023-04-22T22:41:35.361Z,25.50
2023-04-22T22:44:01.808Z,23.50
2023-04-22T22:46:28.339Z,25.00
2023-04-22T22:48:54.830Z,25.00
2023-04-22T22:51:21.305Z,25.00
2023-04-22T22:53:47.800Z,24.50
2023-04-22T22:56:14.286Z,21.50
2023-04-22T22:58:40.760Z,23.00
2023-04-22T23:01:08.163Z,20.00
2023-04-22T23:03:35.780Z,24.67
2023-04-22T23:06:02.338Z,24.50
2023-04-22T23:08:28.790Z,26.00
2023-04-22T23:10:55.265Z,23.50
2023-04-22T23:13:21.739Z,26.50
2023-04-22T23:15:48.239Z,27.00
2023-04-22T23:18:15.634Z,32.00
2023-04-22T23:20:42.113Z,25.00
2023-04-22T23:23:08.626Z,33.00
2023-04-22T23:25:35.101Z,34.00
2023-04-22T23:28:02.517Z,34.50
2023-04-22T23:30:28.977Z,35.00
2023-04-22T23:32:56.406Z,36.00
2023-04-22T23:35:22.882Z,31.50
2023-04-22T23:37:50.275Z,35.50
2023-04-22T23:40:17.672Z,32.00
2023-04-22T23:42:44.145Z,39.00
2023-04-22T23:45:11.569Z,36.33
2023-04-22T23:47:38.107Z,33.00
2023-04-22T23:50:04.611Z,39.00
2023-04-22T23:52:32.041Z,37.00
2023-04-22T23:54:59.466Z,36.00
2023-04-22T23:57:25.970Z,37.00
2023-04-22T23:59:53.422Z,42.67
